Pottstown, Pennsylvania
Current Conditions -  °F | °C
As of 3:43 AM on Monday 26 Jan 2015 (Local Time) from KPTW Reporting Station
Light Snow Light Snow  
Wind Chill: -9°   Ceiling: 1200
Heat Index: -4°   Visibility: 1.2mi
Dew Point: -6°   Wind: 7mph
Humidity: 91%   Direction: 60°ENE
Pressure: 29.95"   Gusts: NA
Location:  40.25°N, 75.65°W
Report Text: KPTW 260843Z AUTO 06006KT 1 1/4SM -SN BR BKN012 OVC026 M04/M06 A2995 RMK AO2 P0001 T10441056
Loading
Personal Weather Stations






























Interactive Weather Map New forecast layout! Learn more

10-Day Weather Forecast

Advertisements
Track Severe Weather on mobile